Airfield :
LOGIN :

Register | Disclaimer

   EN    FR    IT 

 










Legend :    VFR   Marginal VFR   IFR   Intensive IFR   Very Intensive IFR
Visi :
Ceiling :
>= 8 km
>= 3000ft
5 to 8 km
1000 to 3000 ft
1500m to 5 km
500 to 1000 ft
800 to 1500m
200 to 500 ft
< 800m
< 200 ft
Symbols :   Thunderstorms  Fog  Heavy snow  Heavy precipitations  Wind > 20 kt
SIGMETs :     Misc.  Thunderstorms  Icing  Turbulence  Mountain Waves  Volcanic Ashes







- Airport Elevation : 681 ft
- IATA code : LBA
- Download approach charts


EGNM - Leeds Bradford

CURRENT METAR :
  • 250850Z 02012KT 350V060 8000 -RA SCT002 BKN003 13/13 Q1020

EXPIRED METARs :
  • 250820Z 02013KT 350V050 7000 -RA SCT002 BKN003 13/12 Q1020
  • 250750Z 02013KT 360V070 5000 -RA FEW001 BKN002 13/13 Q1020
  • 250720Z 02012KT 350V050 2000 -RA FEW001 SCT002 BKN003 13/13 Q1020
  • 250650Z 02012KT 350V060 3000 -SHRA FEW001 SCT002 BKN003 13/13 Q1020
  • 250620Z 01011KT 330V050 3600 BR FEW001 SCT002 BKN003 13/13 Q1020

TAF TAF EGNM
Valid from the 25 at 06:00 until the 26 at 06:00 UTC


250459Z 2506/2606 02008KT 4000 BR BKN005
TEMPO 2506/2510 0200 -DZ FG VV///
PROB40
TEMPO 2506/2510 5000 +RA
BECMG 2510/2512 6000 NSW
PROB30
TEMPO 2512/2518 9999 SCT010
PROB40
TEMPO 2521/2606 0200 FG VV///
ATIS : +44 113 250 9696 (x2489)
No reported NOTAMs for that airfield.
2 SIGMETs reported for the London FIR (EGTT) :
 
Embedded thunderstorms
EGTT SIGMET 03 VALID 250900/251300 EGRR
EGTT LONDON FIR EMBD TS FCST WI N5227 E00059 - N5253 W00041 - N5455 W00022 - N5446 E00155 - N5408 E00336 - N5227 E00059 TOP FL350 MOV NNE 20KT WKN=
Embedded thunderstorms
EGTT SIGMET 02 VALID 250500/250900 EGRR
EGTT LONDON FIR EMBD TS FCST WI N5130 E00200 - N5107 E00200 - N5100 E00128 - N5045 E00033 - N5130 W00054 - N5312 W00009 - N5245 E00303 - N5130 E00200 TOP FL360 MOV NNE 20KT WKN=



MET'MAP, your aeronautical weather chart ! - Copyright ORBIFLY December 2007 - Disclaimer

ORBIFLY MET'MAP TEAM :

Programming & Development : Alexandra Zaïnal
Concept & Development : Baudouin d'Aumeries
Co-Development & Prog : Marc-Olivier Méhu
Technical & hardware support : Manuel Goepfert

Contact : metmap@orbifly.com




SOURCES & CREDITS :

   NOAA